Tug Colum — J — position and weather

sailwx.info

Track history (hours):
 
Tides and Currents Weather Stations Pressure Air Temp Water Temp Dewpoint Dewpoint Depression Visibility Wind Speed Wind Dir Waves Ship Positions

Tug Colum

Last reported at 2017-Nov-15 16:00 UTC. Time now 2017-Nov-19 01:08 UTC.
Position N 22°53' E 113°06'.

MMSI: 336487207.

Date/timePositionNaut miles runAvg speedWind from/ knotsBaromVisibWave heightAir tempDewpointWater temp
2017-Nov-15 16:00N 22°53' E 113°06'2 3.0
2017-Nov-15 15:28N 22°55' E 113°07'3 5.4
2017-Nov-15 15:00N 22°54' E 113°09'3 5.2
2017-Nov-15 14:28N 22°54' E 113°12'3 5.5
2017-Nov-15 14:00N 22°54' E 113°15'3 5.6
2017-Nov-15 13:30N 22°53' E 113°18'3 5.7
2017-Nov-15 13:00N 22°54' E 113°21'3 5.7
2017-Nov-15 12:30N 22°54' E 113°24'3 5.6
2017-Nov-15 12:00N 22°55' E 113°27'3 5.4
2017-Nov-15 11:30N 22°54' E 113°30'3 5.7
2017-Nov-15 11:00N 22°52' E 113°32'3 5.3
2017-Nov-15 10:30N 22°51' E 113°35'3 5.0
2017-Nov-15 10:00N 22°49' E 113°36'2 4.3
2017-Nov-15 09:30N 22°47' E 113°38'2 3.3
2017-Nov-15 08:58N 22°45' E 113°38'2 4.0
2017-Nov-15 08:26N 22°44' E 113°40'1 3.0
2017-Nov-15 07:59N 22°43' E 113°40'1 3.0
2017-Nov-15 07:30N 22°41' E 113°41'2 0.5
2017-Nov-15 04:22N 22°40' E 113°40'0 0.0
2017-Nov-15 03:58N 22°40' E 113°40'0 0.0
2017-Nov-15 03:06N 22°40' E 113°40'0 0.0
2017-Nov-15 02:57N 22°40' E 113°40'0 0.0
2017-Nov-15 02:21N 22°40' E 113°40'0 0.0
2017-Nov-15 01:48N 22°40' E 113°40'0 0.0
2017-Nov-15 01:29N 22°40' E 113°40'0 0.0
2017-Nov-15 00:53N 22°40' E 113°40'0 0.0
2017-Nov-15 00:26N 22°40' E 113°40'0 0.0
2017-Nov-14 23:56N 22°40' E 113°40'0 0.0
2017-Nov-14 23:28N 22°40' E 113°40'0 0.1
2017-Nov-14 22:52N 22°40' E 113°40'0 0.1
2017-Nov-14 19:19N 22°40' E 113°40'0 0.0
2017-Nov-14 19:01N 22°40' E 113°40'0 0.0
2017-Nov-14 18:30N 22°40' E 113°40'0 0.0
2017-Nov-14 18:00N 22°40' E 113°40'0 0.1
2017-Nov-14 17:25N 22°40' E 113°40'1 2.8
2017-Nov-14 17:00N 22°39' E 113°41'4 4.5
2017-Nov-14 16:08N 22°37' E 113°45'1 4.5
2017-Nov-14 16:00N 22°37' E 113°45'2 4.3
2017-Nov-14 15:30N 22°35' E 113°47'2 4.7
2017-Nov-14 15:00N 22°33' E 113°48'2 4.5
2017-Nov-14 14:30N 22°32' E 113°50'1 2.1
2017-Nov-14 13:59N 22°32' E 113°51'0 0.0
2017-Nov-14 13:22N 22°32' E 113°51'0 0.0
2017-Nov-14 12:58N 22°32' E 113°51'0 0.0
2017-Nov-14 12:28N 22°32' E 113°51'0 0.0
2017-Nov-14 11:54N 22°32' E 113°51'1 1.9
2017-Nov-14 11:30N 22°31' E 113°51'0 0.0
2017-Nov-14 11:00N 22°31' E 113°51'0 0.0
2017-Nov-14 10:30N 22°31' E 113°51'0 0.0
2017-Nov-14 09:59N 22°31' E 113°51'0 0.0
2017-Nov-14 09:29N 22°31' E 113°51'0 0.0
2017-Nov-14 08:59N 22°31' E 113°51'0 0.0
2017-Nov-14 08:28N 22°31' E 113°51'0 0.1
2017-Nov-14 07:58N 22°31' E 113°51'0 0.0
2017-Nov-14 07:28N 22°31' E 113°51'0 0.1
2017-Nov-14 07:00N 22°31' E 113°51'0 0.0
2017-Nov-14 06:30N 22°31' E 113°51'0 0.0
2017-Nov-14 06:00N 22°31' E 113°51'0 0.0
2017-Nov-14 05:30N 22°31' E 113°51'0 0.0
2017-Nov-14 04:59N 22°31' E 113°51'0 0.0
2017-Nov-14 04:29N 22°31' E 113°51'0 0.0
2017-Nov-14 03:59N 22°31' E 113°51'0 0.0
2017-Nov-14 03:28N 22°31' E 113°51'0 0.0
2017-Nov-14 02:55N 22°31' E 113°51'0 0.0
2017-Nov-14 02:25N 22°31' E 113°51'1 3.0
2017-Nov-14 01:59N 22°32' E 113°50'2 5.1
2017-Nov-14 01:30N 22°33' E 113°48'2 5.1
2017-Nov-14 01:00N 22°35' E 113°46'2 4.9
2017-Nov-14 00:31N 22°37' E 113°45'2 4.7
2017-Nov-14 00:00N 22°39' E 113°43'2 4.9
2017-Nov-13 23:30N 22°41' E 113°42'2 4.8
2017-Nov-13 22:59N 22°43' E 113°41'2 4.3
2017-Nov-13 22:30N 22°45' E 113°39'2 4.7
2017-Nov-13 22:00N 22°47' E 113°38'  
2017-Nov-09 13:40N 05°22' W 000°10'1 4.4
2017-Nov-09 13:28N 05°23' W 000°10'2 4.4
2017-Nov-09 13:01N 05°24' W 000°09'2 4.4
2017-Nov-09 12:31N 05°26' W 000°07'2 4.3
2017-Nov-09 12:01N 05°28' W 000°06'2 4.4
2017-Nov-09 11:31N 05°30' W 000°05'2 4.1
2017-Nov-09 11:00N 05°31' W 000°04'2 4.1
2017-Nov-09 10:30N 05°33' W 000°02'2 3.3
2017-Nov-09 10:01N 05°34' W 000°01'2 3.6
2017-Nov-09 09:31N 05°36' W 000°00'1 1.5
2017-Nov-09 09:00N 05°36' E 000°00'0 0.0
2017-Nov-09 08:30N 05°36' E 000°00'2 3.4
2017-Nov-09 08:01N 05°38' E 000°01'0 0.0
2017-Nov-09 07:31N 05°38' E 000°01'0 0.0
2017-Nov-09 07:00N 05°38' E 000°01'0 0.0
2017-Nov-09 06:31N 05°38' E 000°01'0 0.0
2017-Nov-09 06:00N 05°38' E 000°01'0 0.0
2017-Nov-09 05:30N 05°38' E 000°01'0 0.0
2017-Nov-09 05:00N 05°38' E 000°01'0 0.0
2017-Nov-09 04:30N 05°38' E 000°01'0 0.0
2017-Nov-09 04:01N 05°38' E 000°01'0 0.0
2017-Nov-09 03:31N 05°38' E 000°01'0 0.0
2017-Nov-09 03:01N 05°38' E 000°01'0 0.0
2017-Nov-09 02:31N 05°38' E 000°01'0 0.0
2017-Nov-09 02:00N 05°38' E 000°01'0 0.0
2017-Nov-09 01:31N 05°38' E 000°01'0 0.0
2017-Nov-09 01:01N 05°38' E 000°01'0 0.0
2017-Nov-09 00:31N 05°38' E 000°01'0 0.0
2017-Nov-09 00:01N 05°38' E 000°01'0 0.0
2017-Nov-08 23:31N 05°38' E 000°01'0 0.0
2017-Nov-08 23:01N 05°38' E 000°01'0 0.0
2017-Nov-08 22:31N 05°38' E 000°01'0 0.0
2017-Nov-08 22:00N 05°38' E 000°01'0 0.0
2017-Nov-08 21:30N 05°38' E 000°01'0 0.0
2017-Nov-08 21:01N 05°38' E 000°01'0 0.0
2017-Nov-08 20:31N 05°38' E 000°01'0 0.0
2017-Nov-08 20:01N 05°38' E 000°01'0 0.0
2017-Nov-08 19:30N 05°38' E 000°01'0 0.0
2017-Nov-08 19:00N 05°38' E 000°01'0 0.0
2017-Nov-08 18:30N 05°38' E 000°01'0 0.0
2017-Nov-08 18:00N 05°38' E 000°01'0 0.0
2017-Nov-08 17:30N 05°38' E 000°01'0 0.0
2017-Nov-08 17:00N 05°38' E 000°01'0 0.0
2017-Nov-08 16:31N 05°38' E 000°01'0 0.0
2017-Nov-08 16:01N 05°38' E 000°01'0 0.0
2017-Nov-08 15:30N 05°38' E 000°01'0 0.0
2017-Nov-08 15:01N 05°38' E 000°01'0 0.0
2017-Nov-08 14:31N 05°38' E 000°01'0 0.0
2017-Nov-08 14:00N 05°38' E 000°01'0 0.0
2017-Nov-08 13:31N 05°38' E 000°01'0 0.0
2017-Nov-08 13:01N 05°38' E 000°01'0 0.0
2017-Nov-08 12:30N 05°38' E 000°01'0 0.0
2017-Nov-08 12:01N 05°38' E 000°01'0 0.0
2017-Nov-08 11:30N 05°38' E 000°01'0 0.0
2017-Nov-08 11:01N 05°38' E 000°01'0 0.0
2017-Nov-08 10:31N 05°38' E 000°01'0 0.0
2017-Nov-08 10:01N 05°38' E 000°01'0 0.0
2017-Nov-08 09:31N 05°38' E 000°01'0 0.0
2017-Nov-08 09:00N 05°38' E 000°01'0 0.0
2017-Nov-08 08:31N 05°38' E 000°01'0 0.0
2017-Nov-08 08:00N 05°38' E 000°01'0 0.0
2017-Nov-08 07:31N 05°38' E 000°01'0 0.0
2017-Nov-08 07:00N 05°38' E 000°01'0 0.0
2017-Nov-08 06:31N 05°38' E 000°01'0 0.0
2017-Nov-08 06:01N 05°38' E 000°01'0 0.0
2017-Nov-08 05:31N 05°38' E 000°01'0 0.0
2017-Nov-08 05:00N 05°38' E 000°01'0 0.0
2017-Nov-08 04:31N 05°38' E 000°01'0 0.0
2017-Nov-08 04:00N 05°38' E 000°01'0 0.0
2017-Nov-08 03:31N 05°38' E 000°01'0 0.0
2017-Nov-08 03:01N 05°38' E 000°01'0 0.0
2017-Nov-08 02:31N 05°38' E 000°01'0 0.0
2017-Nov-08 02:01N 05°38' E 000°01'0 0.0
2017-Nov-08 01:31N 05°38' E 000°01'0 0.0
2017-Nov-08 01:01N 05°38' E 000°01'0 0.0
2017-Nov-08 00:30N 05°38' E 000°01'0 0.0
2017-Nov-08 00:01N 05°38' E 000°01'0 0.0
2017-Nov-07 23:31N 05°38' E 000°01'0 0.0
2017-Nov-07 23:01N 05°38' E 000°01'0 0.0
2017-Nov-07 22:31N 05°38' E 000°01'0 0.0
2017-Nov-07 22:00N 05°38' E 000°01'0 0.0
2017-Nov-07 21:31N 05°38' E 000°01'0 0.0
2017-Nov-07 21:01N 05°38' E 000°01'0 0.0
2017-Nov-07 20:30N 05°38' E 000°01'0 0.0
2017-Nov-07 20:01N 05°38' E 000°01'0 0.0
2017-Nov-07 19:31N 05°38' E 000°01'0 0.0
2017-Nov-07 19:01N 05°38' E 000°01'0 0.0
2017-Nov-07 18:31N 05°38' E 000°01'0 0.0
2017-Nov-07 18:01N 05°38' E 000°01'0 0.0
2017-Nov-07 17:30N 05°38' E 000°01'0 0.0
2017-Nov-07 17:01N 05°38' E 000°01'0 0.0
2017-Nov-07 16:31N 05°38' E 000°01'0 0.0
2017-Nov-07 16:00N 05°38' E 000°01'0 0.0
2017-Nov-07 15:31N 05°38' E 000°01'0 0.0
2017-Nov-07 15:01N 05°38' E 000°01'0 0.0
2017-Nov-07 14:31N 05°38' E 000°01'0 0.0
2017-Nov-07 14:01N 05°38' E 000°01'0 0.0
2017-Nov-07 13:31N 05°38' E 000°01'0 0.0
2017-Nov-07 13:01N 05°38' E 000°01'0 0.0
2017-Nov-07 12:30N 05°38' E 000°01'0 0.0
2017-Nov-07 12:01N 05°38' E 000°01'0 0.0
2017-Nov-07 11:31N 05°38' E 000°01'0 0.7
2017-Nov-07 11:01N 05°38' E 000°01'2 4.2
2017-Nov-07 10:31N 05°37' W 000°01'0 0.5
2017-Nov-07 10:00N 05°36' W 000°01'0 0.1
2017-Nov-07 09:31N 05°36' W 000°01'0 0.0
2017-Nov-07 09:01N 05°36' W 000°01'0 0.0
2017-Nov-07 08:31N 05°36' W 000°01'0 0.0
2017-Nov-07 08:00N 05°36' W 000°01'0 0.0
2017-Nov-07 07:31N 05°36' W 000°01'0 0.0
2017-Nov-07 07:00N 05°36' W 000°01'0 0.0
2017-Nov-07 06:31N 05°36' W 000°01'0 0.0
2017-Nov-07 06:00N 05°36' W 000°01'0 0.0
2017-Nov-07 05:31N 05°36' W 000°01'0 0.0
2017-Nov-07 05:01N 05°36' W 000°01'0 0.0
2017-Nov-07 04:30N 05°36' W 000°01'0 0.0
2017-Nov-07 04:01N 05°36' W 000°01'0 0.0
2017-Nov-07 03:31N 05°36' W 000°01'0 0.0
2017-Nov-07 03:01N 05°36' W 000°01'0 0.0
2017-Nov-07 02:31N 05°36' W 000°01'0 0.0
2017-Nov-07 02:01N 05°36' W 000°01'0 0.0
2017-Nov-07 01:31N 05°36' W 000°01'0 0.0
2017-Nov-07 01:00N 05°36' W 000°01'0 0.0
2017-Nov-07 00:31N 05°36' W 000°01'0 0.0
2017-Nov-07 00:01N 05°36' W 000°01'0 0.0
2017-Nov-06 23:31N 05°36' W 000°01'0 0.0
2017-Nov-06 23:00N 05°36' W 000°01'0 0.0
2017-Nov-06 22:31N 05°36' W 000°01'0 0.0
2017-Nov-06 22:01N 05°36' W 000°01'0 0.0
2017-Nov-06 21:31N 05°36' W 000°01'0 0.0
2017-Nov-06 21:01N 05°36' W 000°01'0 0.0
2017-Nov-06 20:31N 05°36' W 000°01'0 0.0
2017-Nov-06 02:30N 05°36' W 000°01'0 0.0
2017-Nov-06 02:00N 05°36' W 000°01'0 0.0
2017-Nov-06 01:30N 05°36' W 000°01'0 0.0
2017-Nov-06 01:00N 05°36' W 000°01'0 0.0
2017-Nov-06 00:30N 05°36' W 000°01'0 0.0
2017-Nov-06 00:00N 05°36' W 000°01'0 0.0
2017-Nov-05 23:30N 05°36' W 000°01'0 0.0
2017-Nov-05 23:00N 05°36' W 000°01'0 0.0
2017-Nov-05 22:30N 05°36' W 000°01'0 0.0
2017-Nov-05 22:00N 05°36' W 000°01'0 0.0
2017-Nov-05 21:30N 05°36' W 000°01'0 0.0
2017-Nov-05 21:00N 05°36' W 000°01'0 0.0
2017-Nov-05 20:30N 05°36' W 000°01'0 0.0
2017-Nov-05 20:00N 05°36' W 000°01'0 0.0
2017-Nov-05 19:30N 05°36' W 000°01'0 0.0
2017-Nov-05 19:00N 05°36' W 000°01'0 0.0
2017-Nov-05 18:30N 05°36' W 000°01'0 0.0
2017-Nov-05 18:00N 05°36' W 000°01'0 0.0
2017-Nov-05 17:30N 05°36' W 000°01'0 0.0
2017-Nov-05 17:00N 05°36' W 000°01'0 0.0
2017-Nov-05 16:30N 05°36' W 000°01'0 0.0
2017-Nov-05 16:00N 05°36' W 000°01'  
Track history (hours):
 
Tides and Currents Weather Stations Pressure Air Temp Water Temp Dewpoint Dewpoint Depression Visibility Wind Speed Wind Dir Waves Ship Positions

Tug Colum

Last reported at 2017-Nov-15 16:00 UTC. Time now 2017-Nov-19 01:08 UTC.
Position N 22°53' E 113°06'.

MMSI: 336487207.

Date/timePositionNaut miles runAvg speedWind from/ knotsBaromVisibWave heightAir tempDewpointWater temp
2017-Nov-15 16:00N 22°53' E 113°06'2 3.0
2017-Nov-15 15:28N 22°55' E 113°07'3 5.4
2017-Nov-15 15:00N 22°54' E 113°09'3 5.2
2017-Nov-15 14:28N 22°54' E 113°12'3 5.5
2017-Nov-15 14:00N 22°54' E 113°15'3 5.6
2017-Nov-15 13:30N 22°53' E 113°18'3 5.7
2017-Nov-15 13:00N 22°54' E 113°21'3 5.7
2017-Nov-15 12:30N 22°54' E 113°24'3 5.6
2017-Nov-15 12:00N 22°55' E 113°27'3 5.4
2017-Nov-15 11:30N 22°54' E 113°30'3 5.7
2017-Nov-15 11:00N 22°52' E 113°32'3 5.3
2017-Nov-15 10:30N 22°51' E 113°35'3 5.0
2017-Nov-15 10:00N 22°49' E 113°36'2 4.3
2017-Nov-15 09:30N 22°47' E 113°38'2 3.3
2017-Nov-15 08:58N 22°45' E 113°38'2 4.0
2017-Nov-15 08:26N 22°44' E 113°40'1 3.0
2017-Nov-15 07:59N 22°43' E 113°40'1 3.0
2017-Nov-15 07:30N 22°41' E 113°41'2 0.5
2017-Nov-15 04:22N 22°40' E 113°40'0 0.0
2017-Nov-15 03:58N 22°40' E 113°40'0 0.0
2017-Nov-15 03:06N 22°40' E 113°40'0 0.0
2017-Nov-15 02:57N 22°40' E 113°40'0 0.0
2017-Nov-15 02:21N 22°40' E 113°40'0 0.0
2017-Nov-15 01:48N 22°40' E 113°40'0 0.0
2017-Nov-15 01:29N 22°40' E 113°40'0 0.0
2017-Nov-15 00:53N 22°40' E 113°40'0 0.0
2017-Nov-15 00:26N 22°40' E 113°40'0 0.0
2017-Nov-14 23:56N 22°40' E 113°40'0 0.0
2017-Nov-14 23:28N 22°40' E 113°40'0 0.1
2017-Nov-14 22:52N 22°40' E 113°40'0 0.1
2017-Nov-14 19:19N 22°40' E 113°40'0 0.0
2017-Nov-14 19:01N 22°40' E 113°40'0 0.0
2017-Nov-14 18:30N 22°40' E 113°40'0 0.0
2017-Nov-14 18:00N 22°40' E 113°40'0 0.1
2017-Nov-14 17:25N 22°40' E 113°40'1 2.8
2017-Nov-14 17:00N 22°39' E 113°41'4 4.5
2017-Nov-14 16:08N 22°37' E 113°45'1 4.5
2017-Nov-14 16:00N 22°37' E 113°45'2 4.3
2017-Nov-14 15:30N 22°35' E 113°47'2 4.7
2017-Nov-14 15:00N 22°33' E 113°48'2 4.5
2017-Nov-14 14:30N 22°32' E 113°50'1 2.1
2017-Nov-14 13:59N 22°32' E 113°51'0 0.0
2017-Nov-14 13:22N 22°32' E 113°51'0 0.0
2017-Nov-14 12:58N 22°32' E 113°51'0 0.0
2017-Nov-14 12:28N 22°32' E 113°51'0 0.0
2017-Nov-14 11:54N 22°32' E 113°51'1 1.9
2017-Nov-14 11:30N 22°31' E 113°51'0 0.0
2017-Nov-14 11:00N 22°31' E 113°51'0 0.0
2017-Nov-14 10:30N 22°31' E 113°51'0 0.0
2017-Nov-14 09:59N 22°31' E 113°51'0 0.0
2017-Nov-14 09:29N 22°31' E 113°51'0 0.0
2017-Nov-14 08:59N 22°31' E 113°51'0 0.0
2017-Nov-14 08:28N 22°31' E 113°51'0 0.1
2017-Nov-14 07:58N 22°31' E 113°51'0 0.0
2017-Nov-14 07:28N 22°31' E 113°51'0 0.1
2017-Nov-14 07:00N 22°31' E 113°51'0 0.0
2017-Nov-14 06:30N 22°31' E 113°51'0 0.0
2017-Nov-14 06:00N 22°31' E 113°51'0 0.0
2017-Nov-14 05:30N 22°31' E 113°51'0 0.0
2017-Nov-14 04:59N 22°31' E 113°51'0 0.0
2017-Nov-14 04:29N 22°31' E 113°51'0 0.0
2017-Nov-14 03:59N 22°31' E 113°51'0 0.0
2017-Nov-14 03:28N 22°31' E 113°51'0 0.0
2017-Nov-14 02:55N 22°31' E 113°51'0 0.0
2017-Nov-14 02:25N 22°31' E 113°51'1 3.0
2017-Nov-14 01:59N 22°32' E 113°50'2 5.1
2017-Nov-14 01:30N 22°33' E 113°48'2 5.1
2017-Nov-14 01:00N 22°35' E 113°46'2 4.9
2017-Nov-14 00:31N 22°37' E 113°45'2 4.7
2017-Nov-14 00:00N 22°39' E 113°43'2 4.9
2017-Nov-13 23:30N 22°41' E 113°42'2 4.8
2017-Nov-13 22:59N 22°43' E 113°41'2 4.3
2017-Nov-13 22:30N 22°45' E 113°39'2 4.7
2017-Nov-13 22:00N 22°47' E 113°38'  
2017-Nov-09 13:40N 05°22' W 000°10'1 4.4
2017-Nov-09 13:28N 05°23' W 000°10'2 4.4
2017-Nov-09 13:01N 05°24' W 000°09'2 4.4
2017-Nov-09 12:31N 05°26' W 000°07'2 4.3
2017-Nov-09 12:01N 05°28' W 000°06'2 4.4
2017-Nov-09 11:31N 05°30' W 000°05'2 4.1
2017-Nov-09 11:00N 05°31' W 000°04'2 4.1
2017-Nov-09 10:30N 05°33' W 000°02'2 3.3
2017-Nov-09 10:01N 05°34' W 000°01'2 3.6
2017-Nov-09 09:31N 05°36' W 000°00'1 1.5
2017-Nov-09 09:00N 05°36' E 000°00'0 0.0
2017-Nov-09 08:30N 05°36' E 000°00'2 3.4
2017-Nov-09 08:01N 05°38' E 000°01'0 0.0
2017-Nov-09 07:31N 05°38' E 000°01'0 0.0
2017-Nov-09 07:00N 05°38' E 000°01'0 0.0
2017-Nov-09 06:31N 05°38' E 000°01'0 0.0
2017-Nov-09 06:00N 05°38' E 000°01'0 0.0
2017-Nov-09 05:30N 05°38' E 000°01'0 0.0
2017-Nov-09 05:00N 05°38' E 000°01'0 0.0
2017-Nov-09 04:30N 05°38' E 000°01'0 0.0
2017-Nov-09 04:01N 05°38' E 000°01'0 0.0
2017-Nov-09 03:31N 05°38' E 000°01'0 0.0
2017-Nov-09 03:01N 05°38' E 000°01'0 0.0
2017-Nov-09 02:31N 05°38' E 000°01'0 0.0
2017-Nov-09 02:00N 05°38' E 000°01'0 0.0
2017-Nov-09 01:31N 05°38' E 000°01'0 0.0
2017-Nov-09 01:01N 05°38' E 000°01'0 0.0
2017-Nov-09 00:31N 05°38' E 000°01'0 0.0
2017-Nov-09 00:01N 05°38' E 000°01'0 0.0
2017-Nov-08 23:31N 05°38' E 000°01'0 0.0
2017-Nov-08 23:01N 05°38' E 000°01'0 0.0
2017-Nov-08 22:31N 05°38' E 000°01'0 0.0
2017-Nov-08 22:00N 05°38' E 000°01'0 0.0
2017-Nov-08 21:30N 05°38' E 000°01'0 0.0
2017-Nov-08 21:01N 05°38' E 000°01'0 0.0
2017-Nov-08 20:31N 05°38' E 000°01'0 0.0
2017-Nov-08 20:01N 05°38' E 000°01'0 0.0
2017-Nov-08 19:30N 05°38' E 000°01'0 0.0
2017-Nov-08 19:00N 05°38' E 000°01'0 0.0
2017-Nov-08 18:30N 05°38' E 000°01'0 0.0
2017-Nov-08 18:00N 05°38' E 000°01'0 0.0
2017-Nov-08 17:30N 05°38' E 000°01'0 0.0
2017-Nov-08 17:00N 05°38' E 000°01'0 0.0
2017-Nov-08 16:31N 05°38' E 000°01'0 0.0
2017-Nov-08 16:01N 05°38' E 000°01'0 0.0
2017-Nov-08 15:30N 05°38' E 000°01'0 0.0
2017-Nov-08 15:01N 05°38' E 000°01'0 0.0
2017-Nov-08 14:31N 05°38' E 000°01'0 0.0
2017-Nov-08 14:00N 05°38' E 000°01'0 0.0
2017-Nov-08 13:31N 05°38' E 000°01'0 0.0
2017-Nov-08 13:01N 05°38' E 000°01'0 0.0
2017-Nov-08 12:30N 05°38' E 000°01'0 0.0
2017-Nov-08 12:01N 05°38' E 000°01'0 0.0
2017-Nov-08 11:30N 05°38' E 000°01'0 0.0
2017-Nov-08 11:01N 05°38' E 000°01'0 0.0
2017-Nov-08 10:31N 05°38' E 000°01'0 0.0
2017-Nov-08 10:01N 05°38' E 000°01'0 0.0
2017-Nov-08 09:31N 05°38' E 000°01'0 0.0
2017-Nov-08 09:00N 05°38' E 000°01'0 0.0
2017-Nov-08 08:31N 05°38' E 000°01'0 0.0
2017-Nov-08 08:00N 05°38' E 000°01'0 0.0
2017-Nov-08 07:31N 05°38' E 000°01'0 0.0
2017-Nov-08 07:00N 05°38' E 000°01'0 0.0
2017-Nov-08 06:31N 05°38' E 000°01'0 0.0
2017-Nov-08 06:01N 05°38' E 000°01'0 0.0
2017-Nov-08 05:31N 05°38' E 000°01'0 0.0
2017-Nov-08 05:00N 05°38' E 000°01'0 0.0
2017-Nov-08 04:31N 05°38' E 000°01'0 0.0
2017-Nov-08 04:00N 05°38' E 000°01'0 0.0
2017-Nov-08 03:31N 05°38' E 000°01'0 0.0
2017-Nov-08 03:01N 05°38' E 000°01'0 0.0
2017-Nov-08 02:31N 05°38' E 000°01'0 0.0
2017-Nov-08 02:01N 05°38' E 000°01'0 0.0
2017-Nov-08 01:31N 05°38' E 000°01'0 0.0
2017-Nov-08 01:01N 05°38' E 000°01'0 0.0
2017-Nov-08 00:30N 05°38' E 000°01'0 0.0
2017-Nov-08 00:01N 05°38' E 000°01'0 0.0
2017-Nov-07 23:31N 05°38' E 000°01'0 0.0
2017-Nov-07 23:01N 05°38' E 000°01'0 0.0
2017-Nov-07 22:31N 05°38' E 000°01'0 0.0
2017-Nov-07 22:00N 05°38' E 000°01'0 0.0
2017-Nov-07 21:31N 05°38' E 000°01'0 0.0
2017-Nov-07 21:01N 05°38' E 000°01'0 0.0
2017-Nov-07 20:30N 05°38' E 000°01'0 0.0
2017-Nov-07 20:01N 05°38' E 000°01'0 0.0
2017-Nov-07 19:31N 05°38' E 000°01'0 0.0
2017-Nov-07 19:01N 05°38' E 000°01'0 0.0
2017-Nov-07 18:31N 05°38' E 000°01'0 0.0
2017-Nov-07 18:01N 05°38' E 000°01'0 0.0
2017-Nov-07 17:30N 05°38' E 000°01'0 0.0
2017-Nov-07 17:01N 05°38' E 000°01'0 0.0
2017-Nov-07 16:31N 05°38' E 000°01'0 0.0
2017-Nov-07 16:00N 05°38' E 000°01'0 0.0
2017-Nov-07 15:31N 05°38' E 000°01'0 0.0
2017-Nov-07 15:01N 05°38' E 000°01'0 0.0
2017-Nov-07 14:31N 05°38' E 000°01'0 0.0
2017-Nov-07 14:01N 05°38' E 000°01'0 0.0
2017-Nov-07 13:31N 05°38' E 000°01'0 0.0
2017-Nov-07 13:01N 05°38' E 000°01'0 0.0
2017-Nov-07 12:30N 05°38' E 000°01'0 0.0
2017-Nov-07 12:01N 05°38' E 000°01'0 0.0
2017-Nov-07 11:31N 05°38' E 000°01'0 0.7
2017-Nov-07 11:01N 05°38' E 000°01'2 4.2
2017-Nov-07 10:31N 05°37' W 000°01'0 0.5
2017-Nov-07 10:00N 05°36' W 000°01'0 0.1
2017-Nov-07 09:31N 05°36' W 000°01'0 0.0
2017-Nov-07 09:01N 05°36' W 000°01'0 0.0
2017-Nov-07 08:31N 05°36' W 000°01'0 0.0
2017-Nov-07 08:00N 05°36' W 000°01'0 0.0
2017-Nov-07 07:31N 05°36' W 000°01'0 0.0
2017-Nov-07 07:00N 05°36' W 000°01'0 0.0
2017-Nov-07 06:31N 05°36' W 000°01'0 0.0
2017-Nov-07 06:00N 05°36' W 000°01'0 0.0
2017-Nov-07 05:31N 05°36' W 000°01'0 0.0
2017-Nov-07 05:01N 05°36' W 000°01'0 0.0
2017-Nov-07 04:30N 05°36' W 000°01'0 0.0
2017-Nov-07 04:01N 05°36' W 000°01'0 0.0
2017-Nov-07 03:31N 05°36' W 000°01'0 0.0
2017-Nov-07 03:01N 05°36' W 000°01'0 0.0
2017-Nov-07 02:31N 05°36' W 000°01'0 0.0
2017-Nov-07 02:01N 05°36' W 000°01'0 0.0
2017-Nov-07 01:31N 05°36' W 000°01'0 0.0
2017-Nov-07 01:00N 05°36' W 000°01'0 0.0
2017-Nov-07 00:31N 05°36' W 000°01'0 0.0
2017-Nov-07 00:01N 05°36' W 000°01'0 0.0
2017-Nov-06 23:31N 05°36' W 000°01'0 0.0
2017-Nov-06 23:00N 05°36' W 000°01'0 0.0
2017-Nov-06 22:31N 05°36' W 000°01'0 0.0
2017-Nov-06 22:01N 05°36' W 000°01'0 0.0
2017-Nov-06 21:31N 05°36' W 000°01'0 0.0
2017-Nov-06 21:01N 05°36' W 000°01'0 0.0
2017-Nov-06 20:31N 05°36' W 000°01'0 0.0
2017-Nov-06 02:30N 05°36' W 000°01'0 0.0
2017-Nov-06 02:00N 05°36' W 000°01'0 0.0
2017-Nov-06 01:30N 05°36' W 000°01'0 0.0
2017-Nov-06 01:00N 05°36' W 000°01'0 0.0
2017-Nov-06 00:30N 05°36' W 000°01'0 0.0
2017-Nov-06 00:00N 05°36' W 000°01'0 0.0
2017-Nov-05 23:30N 05°36' W 000°01'0 0.0
2017-Nov-05 23:00N 05°36' W 000°01'0 0.0
2017-Nov-05 22:30N 05°36' W 000°01'0 0.0
2017-Nov-05 22:00N 05°36' W 000°01'0 0.0
2017-Nov-05 21:30N 05°36' W 000°01'0 0.0
2017-Nov-05 21:00N 05°36' W 000°01'0 0.0
2017-Nov-05 20:30N 05°36' W 000°01'0 0.0
2017-Nov-05 20:00N 05°36' W 000°01'0 0.0
2017-Nov-05 19:30N 05°36' W 000°01'0 0.0
2017-Nov-05 19:00N 05°36' W 000°01'0 0.0
2017-Nov-05 18:30N 05°36' W 000°01'0 0.0
2017-Nov-05 18:00N 05°36' W 000°01'0 0.0
2017-Nov-05 17:30N 05°36' W 000°01'0 0.0
2017-Nov-05 17:00N 05°36' W 000°01'0 0.0
2017-Nov-05 16:30N 05°36' W 000°01'0 0.0
2017-Nov-05 16:00N 05°36' W 000°01'  

Dump ship's entire track history